Latest METARs, TAFs and NOTAMs for LIRQ


---------------------------------------------------------------------------
	(OBSERVATIONS)
LIRQ 231450Z 29006KT CAVOK 19/03 Q1013=
LIRQ 231420Z 29006KT 250V320 CAVOK 20/02 Q1013=
LIRQ 231350Z 30007KT 260V330 CAVOK 19/04 Q1013=
LIRQ 231320Z VRB03KT CAVOK 20/04 Q1013=
LIRQ 231250Z 29005KT 240V340 CAVOK 19/05 Q1013=
LIRQ 231220Z 31004KT 240V040 CAVOK 19/06 Q1013=
---------------------------------------------------------------------------
	(FC)
Sorry, FC For LIRQ Not Found
---------------------------------------------------------------------------
	(TERMINAL AREA FORECAST)
LIRQ 231100Z 2312/2412 VRB06KT CAVOK=
---------------------------------------------------------------------------
	(NOTAMS)


LIRQ A5926/17 FIRENZE VORTAC 'FRZ' FREQ 115.20MHZ CH99X UNSERVICEABLE
    REF AIP AD LIRQ 1-7. 07 SEP 13:47 2017 UNTIL 04 DEC 10:00
    2017 ESTIMATED. CREATED: 07 SEP 13:47 2017

LIRQ B1420/17 REF AIP AD 2 LIRQ 6-1 AND 6-3/4 STANDARD INSTRUMENT
    DEPARTURE PROCEDURE RWY23 - BALUK 7B MODIFY REMARK AS FLW:
    MINIMUM CLIMB GRADIENT UNTIL REACHING FL120: 389FT/NM (6.4
    PER CENT). IAS MAX 210KT UNTIL ESTABLISHING ON RDL 305 PRT
    VOR. - BIKTU 5A (ATC DISCRETION) MODIFY DESCRIPTION AS FLW:
    AT 7 NM PRT DME (INT RDL 171 FRZ VORTAC) TURN RIGHT (IAS
    MAX 210KT) ON HEADING 080DEG TO JOIN AND FOLLOW RDL 050 PRT
    VOR BOUND TO BIKTU. - GAVRA 5A MODIFY DESCRIPTION AS FLW:
    AT 7 NM PRT DME (INT RDL 171 FRZ VORTAC) TURN RIGHT (IAS
    MAX 210KT) BOUND TO PRT VOR. LEAVE PRT VOR ON RDL 092 PRT
    VOR BOUND TO GAVRA. MODIFY REMARK AS FLW: MINIMUM CLIMB GRADIENT
    UNTIL PASSING 5000FT: 389FT/NM (6.4 PER CENT). IAS MAX 210KT
    UNTIL PRT VOR. - KUGIX 7A MODIFY REMARK AS FLW: MINIMUM CLIMB
    GRADIENT UNTIL PASSING 5000FT: 389FT/NM (6.4 PER CENT). IAS
    MAX 210KT UNTIL PRT VOR. - OKMAP 6A MODIFY DESCRIPTION AS
    FLW: AT 7 NM PRT DME (INT RDL 171 FRZ VORTAC) TURN RIGHT
    (IAS MAX 210KT) ON HEADING 062DEG TO JOIN RDL 017 PRT VOR
    BOUND TO OKMAP. 28 MAR 00:00 2017 UNTIL PERM. CREATED: 21
    MAR 14:02 2017

LIRQ B1422/17 REF AIP AD 2 LIRQ 6-5 'VISUAL INITIAL CLIMB RWY
    05' REFERRED TO FLW SID: - BIKTU 5A (ATC DISCRETION) - GAVRA
    5A - KUGIX 7A - OKMAP 6A ON PLAN VIEW MODIFY SPEED RESTRICTION
    TO READ IAS MAX 210KT INSTEAD OF 185KT. 28 MAR 00:00 2017
    UNTIL PERM. CREATED: 21 MAR 14:35 2017

LIRQ B1784/17 REF AIP AD 2 LIRQ 2-5 'AIRCRAFT PARKING DOCKING
    CHART' BOX 'STAND NUMBER - MAX ACFT ALLOWED' ACFT STANDS
    201, 203 AND 206 MAX ACFT ALLOWED CHG TO READ: - 201 - GLEX/GLF5/E190
    - 203 - GLEX/GLF5/A318/A319/E190 - 206 - GLEX/GLF5/A318/A319/E190.
    07 APR 18:18 2017 UNTIL PERM. CREATED: 07 APR 18:18 2017

LIRQ B2184/17 REF AOC TYPE B NR RQ 3/3 NEW OBSTACLE ERECTED BUILDING
    PENETRATING TAKE-OFF CLIMB SURFACE RWY05 (IN CURVE) POINTS
    PSN COORD (WGS-84): - 434929.7N 0111314.4E - 434928.3N 0111316.0E
    - 434929.2N 0111317.1E - 434930.4N 0111315.5E - 434929.7N
    0111314.4E MAX ELEV AGL 16.6M/54.5FT MAX ELEV AMSL 75.1M/246.4FT
    ICAO SIGNAL UNPROVIDED. 03 MAY 08:27 2017 UNTIL PERM. CREATED:
    03 MAY 08:27 2017

LIRQ B4233/17 EDGE LIGHTS ON APRON 100, 200 AND 300 UNSERVICEABLE
    DUE TO WIP REF AIP AD 2 LIRQ 2-5. 21 AUG 07:39 2017 UNTIL
    15 NOV 21:59 2017 ESTIMATED. CREATED: 21 AUG 07:39 2017

LIRQ B4489/17 INITIAL CLIMB PROCEDURE/STANDARD INSTRUMENT DEPARTURE
    PROCEDURE RWY 23 AND VISUAL INITIAL CLIMB PROCEDURE RWY 05
    FLW SID SUSPENDED: - BALUK 7A - FRZ 5A - MAREL 8A REF AIP
    AD 2 LIRQ 6-1/3/4/5/7. 06 SEP 06:54 2017 UNTIL 08 NOV 23:59
    2017. CREATED: 06 SEP 06:54 2017

LIRQ B4490/17 INITIAL CLIMB PROCEDURE/STANDARD INSTRUMENT DEPARTURE
    PROCEDURE RWY 23 AND VISUAL INITIAL CLIMB PROCEDURE/STANDARD
    INSTRUMENT DEPARTURE PROCEDURE RWY 05 (TO BE USED IN CASE
    OF PRT VOR UNSERVICEABLE) FLW SID SUSPENDED: - FRZ 5P - KUGIX
    5C - BALUK 7C - KUGIX 5B REF AIP AD 2 LIRQ 6-9/11 AND 6-13/15.
    06 SEP 06:54 2017 UNTIL 08 NOV 23:59 2017. CREATED: 06 SEP
    06:54 2017

LIRQ B4491/17 STANDARD INSTRUMENT ARRIVAL PROCEDURE FLW STAR
    SUSPENDED: - FRZ 1D - FRZ 2X - MAREL 1D - MAREL 2X REF AIP
    AD 2 LIRQ 4-13/15. 06 SEP 07:00 2017 UNTIL 08 NOV 23:59 2017.
    CREATED: 06 SEP 07:01 2017

LIRQ B4836/17 LOCALIZER (ILS) RWY05 UNSERVICEABLE DUE TO MAINT.
    REF AIP AD 2 LIRQ 1-7. 24 OCT 06:00 2017 UNTIL 24 OCT 16:00
    2017. CREATED: 26 SEP 07:38 2017

LIRQ B4879/17 TRIGGER NOTAM-AIP SUP S10/17 IN FORCE FROM 09 NOV
    2017 TO 15 AUG 2018 EST: FIRENZE/PERETOLA AIRPORT: ACTIVATION
    ON TRIAL BASIS OF NOISE ABATEMENT INITIAL CLIMB PROCEDURE
    RWY23 MODIFICATION, FOR AIRCRAFT CAT A/B/C. SUP IS POSTED
    AND AVBL ON WEBSITE WWW.ENAV.IT. 09 NOV 00:00 2017 UNTIL
    22 NOV 23:59 2017. CREATED: 28 SEP 11:40 2017

LIRQ B4888/17 TRIGGER NOTAM-PERM AIP AIRAC AMDT 10/17 EFFECTIVE
    DATE 09 NOV 2017 FIRENZE/PERETOLA AD - REVIEW AND RENUMBERING
    OF SID AND STAR DUE TO FRZ VORTAC REPLACED BY REP LOMED -
    IMPLEMENTATION OF THE FOLLOWING NEW PROCEDURES: 1. INITIAL
    CLIMB PROCEDURE RWY 23/VISUAL INITIAL CLIMB RWY 05 2. SID
    RNAV RWY 05/23 3. SID PRT VOR RWY 05/23 - REVIEW OF MSA IN
    INSTRUMENT APPROACH PROCEDURES. AIRAC IS POSTED AND AVBL
    ON WEBSITE WWW.ENAV.IT. 09 NOV 00:00 2017 UNTIL 22 NOV 23:59
    2017. CREATED: 28 SEP 14:42 2017

LIRQ B4918/17 INSTRUMENT APPROACH PROCEDURE. FLW INSTR APCH PROC
    RWY05 SUSPENDED DUE TO UNMANNED ACFT ACTIVITY ANNOUNCED BY
    NOTAM W02675/17: - ILS-Z - RNAV (GNSS) Y REF AIP AD 2 LIRQ
    5-3/9. 0CT 07-28 0700-1000 1300-SS, OCT 29-NOV 08 0800-1100
    AND 1400-SS, 07 OCT 07:00 2017 UNTIL 08 NOV 23:59 2017. CREATED:
    29 SEP 11:45 2017

LIRQ B4964/17 REF AIP AD 2 LIRQ 6-24 (AIP AIRAC AMDT 10/17 -
    EFFECTIVE DATE 9 NOV 2017) STANDARD INSTRUMENT DEPARTURE
    PROCEDURE PRT VOR RWY 05/23 MODIFY SID NAME TO READ MAREL
    5H INSTEAD OF MAREL 5C DUE TO A MISSPRINTING. 09 NOV 00:00
    2017 UNTIL PERM. CREATED: 03 OCT 09:37 2017

LIRQ B5094/17 RWY 05/23 CLSD TO ALL TFC DUE TO WIP REF AIP AD
    2 LIRQ 2-1. DAILY 2159-0300, 10 OCT 21:59 2017 UNTIL 31 OCT
    03:00 2017 ESTIMATED. CREATED: 09 OCT 18:03 2017

LIRQ B5188/17 STANDARD INSTRUMENT ARRIVAL PROCEDURE DESCRIPTION
    STAR PIS 2X (ATC DISCRETION) MODIFY MINIMUM CROSSING ALTITUDE
    AS FLW: PIS VOR/DME - RDL 099/15NM PIS VOR/DME (INT RDL 240
    PRT VOR): 6000FT, RDL 099/15NM PIS VOR/DME (INT RDL 240 PRT
    VOR) - GONGA: 5000FT REF AIP AD 2 LIRQ 4-16. 13 OCT 09:24
    2017 UNTIL 08 NOV 23:59 2017. CREATED: 13 OCT 09:24 2017

LIRQ B5189/17 REF AIP AD 2 LIRQ 4-23 (AIP AIRAC AMDT 10/17 -
    EFFECTIVE DATE 09 NOV 2017) STANDARD INSTRUMENT ARRIVAL PROCEDURE
    DESCRIPTION STAR PIS 2X (ATC DISCRETION) MODIFY MINIMUM CROSSING
    ALTITUDE AS FLW: PIS VOR/DME - RDL 099/15NM PIS VOR/DME (INT
    RDL 240 PRT VOR): 6000FT, RDL 099/15NM PIS VOR/DME (INT RDL
    240 PRT VOR) - GONGA: 5000FT. 09 NOV 00:00 2017 UNTIL PERM.
    CREATED: 13 OCT 09:36 2017

LIRQ B5193/17 REF AIP AD 2 LIRQ 4-21 AND 4-23 (AIP AIRAC AMDT
    10/17 - EFFECTIVE DATE 9 NOV 2017) STANDARD INSTRUMENT ARRIVAL
    PROCEDURE STAR AKUTO 1X SHALL BE CONSIDERED ATC DISCRETION
    INSTEAD OF FLIGHT PLANNABLE. 09 NOV 00:00 2017 UNTIL PERM.
    CREATED: 13 OCT 10:32 2017

LIRQ B5351/17 PISA DVOR/DME 'PIS' FREQ 112.10MHZ CH58X AVBL AS
    FLW: - VOR OPERATIVE - DME UNSERVICEABLE REF AIP AD 2 LIRQ
    1-8. 23 OCT 11:53 2017 UNTIL 07 NOV 08:00 2017 ESTIMATED.
    CREATED: 23 OCT 11:53 2017

---------------------------------------------------------------------------